createdAt,value
2022-12-09T00:03:55.968Z,88.82
2022-12-09T00:07:55.268Z,88.80
2022-12-09T00:11:54.374Z,88.78
2022-12-09T00:15:54.161Z,88.76
2022-12-09T00:19:53.245Z,88.74
2022-12-09T00:23:54.135Z,88.73
2022-12-09T00:27:53.257Z,88.69
2022-12-09T00:31:52.795Z,88.67
2022-12-09T00:35:51.936Z,88.64
2022-12-09T00:39:51.457Z,88.60
2022-12-09T00:43:50.986Z,88.59
2022-12-09T00:47:50.583Z,88.58
2022-12-09T00:51:49.967Z,88.56
2022-12-09T00:55:49.317Z,88.55
2022-12-09T00:59:48.389Z,88.54
2022-12-09T01:03:48.105Z,88.54
2022-12-09T01:07:47.764Z,88.51
2022-12-09T01:11:47.496Z,88.45
2022-12-09T01:15:47.005Z,88.42
2022-12-09T01:19:48.294Z,88.42
2022-12-09T01:23:23.673Z,88.40
2022-12-09T01:27:23.949Z,88.45
2022-12-09T01:31:25.942Z,88.45
2022-12-09T01:35:01.473Z,88.43
2022-12-09T01:39:00.882Z,88.43
2022-12-09T01:43:00.198Z,88.42
2022-12-09T01:47:01.141Z,88.67
2022-12-09T01:51:02.365Z,88.69
2022-12-09T01:55:01.893Z,88.19
2022-12-09T01:59:15.161Z,87.66
2022-12-09T02:03:15.092Z,87.25
2022-12-09T02:07:14.507Z,86.75
2022-12-09T02:11:19.529Z,86.05
2022-12-09T02:15:24.322Z,86.44
2022-12-09T02:19:44.652Z,86.46
2022-12-09T02:23:56.653Z,86.32
2022-12-09T02:28:15.629Z,85.99
2022-12-09T02:32:37.845Z,85.67
2022-12-09T02:35:56.957Z,85.66
2022-12-09T02:40:07.016Z,85.57
2022-12-09T02:44:15.951Z,85.27
2022-12-09T02:48:16.857Z,84.85
2022-12-09T02:52:18.918Z,84.75
2022-12-09T02:56:19.310Z,84.59
2022-12-09T03:00:19.592Z,84.73
2022-12-09T03:04:21.407Z,84.63
2022-12-09T03:08:26.933Z,84.70
2022-12-09T03:12:28.788Z,84.62
2022-12-09T03:16:36.676Z,84.63
2022-12-09T03:20:38.640Z,84.52
2022-12-09T03:24:44.964Z,84.55
2022-12-09T03:28:47.734Z,84.28
2022-12-09T03:32:47.392Z,84.22
2022-12-09T03:37:01.303Z,84.17
2022-12-09T03:41:04.728Z,84.12
2022-12-09T03:45:09.769Z,84.05
2022-12-09T03:49:09.797Z,84.15
2022-12-09T03:53:14.824Z,84.08
2022-12-09T03:57:19.454Z,84.00
2022-12-09T04:01:19.834Z,83.98
2022-12-09T04:05:20.424Z,83.99
2022-12-09T04:09:19.979Z,83.81
2022-12-09T04:13:19.190Z,83.62
2022-12-09T04:17:18.374Z,83.64
2022-12-09T04:21:18.364Z,83.68
2022-12-09T04:25:18.141Z,83.75
2022-12-09T04:29:17.771Z,83.62
2022-12-09T04:33:17.384Z,83.71
2022-12-09T04:37:16.734Z,83.74
2022-12-09T04:41:16.407Z,83.69
2022-12-09T04:45:15.994Z,83.67
2022-12-09T04:49:15.603Z,83.69
2022-12-09T04:53:14.695Z,83.48
2022-12-09T04:57:13.779Z,83.48
2022-12-09T05:01:31.253Z,83.49
2022-12-09T05:05:31.041Z,83.43
2022-12-09T05:09:31.073Z,83.37
2022-12-09T05:13:31.501Z,83.27
2022-12-09T05:17:31.283Z,83.22
2022-12-09T05:21:30.849Z,83.22
2022-12-09T05:25:30.344Z,83.22
2022-12-09T05:29:29.969Z,83.23
2022-12-09T05:33:30.359Z,83.24
2022-12-09T05:37:29.761Z,83.21
2022-12-09T05:41:30.408Z,83.19
2022-12-09T05:45:44.444Z,83.04
2022-12-09T05:53:57.796Z,83.03
2022-12-09T05:57:57.474Z,83.04
2022-12-09T06:01:56.875Z,83.02
2022-12-09T06:05:56.947Z,83.12
2022-12-09T06:09:57.334Z,83.10
2022-12-09T06:13:57.684Z,83.13
2022-12-09T06:17:57.455Z,83.20
2022-12-09T06:21:57.267Z,83.17
2022-12-09T06:25:57.219Z,83.21
2022-12-09T06:29:56.606Z,83.20
2022-12-09T06:33:57.695Z,83.09
2022-12-09T06:37:57.610Z,83.12
2022-12-09T06:41:57.875Z,83.23
2022-12-09T06:46:12.169Z,83.05
2022-12-09T06:50:11.739Z,83.15
2022-12-09T06:54:11.660Z,83.21
2022-12-09T06:58:10.776Z,83.27
2022-12-09T07:02:11.738Z,83.20
2022-12-09T07:06:30.891Z,83.16
2022-12-09T07:10:30.824Z,83.14
2022-12-09T07:14:30.767Z,83.20
2022-12-09T07:18:30.778Z,83.23
2022-12-09T07:22:30.802Z,83.20
2022-12-09T07:26:31.382Z,83.11
2022-12-09T07:30:30.904Z,83.06
2022-12-09T07:34:30.816Z,82.98
2022-12-09T07:38:30.504Z,82.98
2022-12-09T07:42:30.278Z,83.00
2022-12-09T07:46:35.670Z,83.00
2022-12-09T07:50:35.897Z,82.98
2022-12-09T07:54:35.591Z,82.98
2022-12-09T07:58:35.599Z,82.92
2022-12-09T08:02:35.396Z,82.94
2022-12-09T08:06:36.059Z,83.00
2022-12-09T08:10:36.264Z,82.99
2022-12-09T08:14:36.073Z,83.01
2022-12-09T08:18:36.587Z,82.94
2022-12-09T08:22:37.725Z,82.79
2022-12-09T08:26:40.257Z,82.79
2022-12-09T08:30:41.154Z,82.84
2022-12-09T08:34:56.843Z,82.75
2022-12-09T08:38:40.142Z,82.65
2022-12-09T08:42:58.055Z,82.46
2022-12-09T08:46:39.297Z,82.36
2022-12-09T08:50:08.525Z,82.33
2022-12-09T08:54:32.704Z,82.13
2022-12-09T08:59:00.442Z,82.08
2022-12-09T09:02:16.308Z,82.07
2022-12-09T09:06:18.165Z,82.23
2022-12-09T09:09:56.643Z,82.20
2022-12-09T09:13:40.131Z,82.15
2022-12-09T09:17:09.394Z,82.03
2022-12-09T09:21:11.063Z,81.94
2022-12-09T09:25:23.719Z,81.95
2022-12-09T09:29:23.818Z,82.04
2022-12-09T09:33:23.304Z,81.83
2022-12-09T09:37:23.820Z,81.79
2022-12-09T09:41:43.590Z,81.88
2022-12-09T09:45:03.156Z,81.84
2022-12-09T09:49:04.332Z,81.84
2022-12-09T09:53:22.776Z,81.77
2022-12-09T09:57:46.633Z,81.77
2022-12-09T10:02:13.013Z,81.53
2022-12-09T10:05:24.647Z,81.29
2022-12-09T10:09:29.442Z,80.99
2022-12-09T10:17:21.747Z,80.39
2022-12-09T10:21:26.415Z,80.37
2022-12-09T10:25:31.033Z,80.42
2022-12-09T10:29:19.444Z,80.37
2022-12-09T10:33:38.146Z,80.33
2022-12-09T10:37:07.139Z,80.12
2022-12-09T10:40:48.130Z,80.12
2022-12-09T10:44:32.755Z,80.11
2022-12-09T10:47:53.945Z,80.15
2022-12-09T10:51:59.389Z,80.07
2022-12-09T10:55:38.935Z,80.07
2022-12-09T10:59:30.695Z,80.01
2022-12-09T11:03:50.708Z,79.92
2022-12-09T11:07:54.318Z,79.88
2022-12-09T11:12:40.232Z,79.83
2022-12-09T11:16:45.694Z,79.74
2022-12-09T11:29:41.022Z,79.72
2022-12-09T11:33:54.488Z,79.76
2022-12-09T11:37:25.357Z,79.80
2022-12-09T11:41:12.744Z,79.19
2022-12-09T11:44:36.274Z,78.86
2022-12-09T11:48:30.291Z,78.61
2022-12-09T11:52:34.422Z,78.77
2022-12-09T11:56:37.484Z,78.98
2022-12-09T12:09:53.044Z,79.13
2022-12-09T12:13:24.583Z,79.23
2022-12-09T12:17:10.589Z,79.20
2022-12-09T12:20:44.212Z,79.15
2022-12-09T12:24:03.141Z,79.13
2022-12-09T12:39:59.284Z,79.13
2022-12-09T12:44:00.904Z,79.16
2022-12-09T12:47:00.601Z,79.23
2022-12-09T12:54:56.410Z,78.83
2022-12-09T12:59:22.409Z,78.50
2022-12-09T13:02:59.257Z,78.40
2022-12-09T13:06:59.828Z,78.10
2022-12-09T13:15:16.969Z,78.03
2022-12-09T13:19:34.744Z,77.80
2022-12-09T13:23:36.650Z,77.58
2022-12-09T13:27:54.102Z,77.63
2022-12-09T13:32:25.943Z,77.43
2022-12-09T13:36:32.965Z,76.97
2022-12-09T13:40:37.034Z,76.51
2022-12-09T13:44:37.210Z,76.57
2022-12-09T13:48:40.564Z,76.73
2022-12-09T13:52:43.697Z,76.64
2022-12-09T13:56:44.391Z,76.87
2022-12-09T14:01:04.184Z,77.02
2022-12-09T14:05:12.452Z,77.32
2022-12-09T14:09:30.966Z,77.56
2022-12-09T14:13:35.622Z,77.78
2022-12-09T14:17:35.235Z,77.87
2022-12-09T14:21:34.515Z,77.87
2022-12-09T14:25:36.231Z,77.88
2022-12-09T14:29:54.193Z,77.91
2022-12-09T14:33:53.079Z,77.94
2022-12-09T14:38:02.495Z,78.02
2022-12-09T14:42:06.281Z,78.24
2022-12-09T14:46:27.108Z,78.33
2022-12-09T14:49:49.277Z,78.09
2022-12-09T14:53:51.324Z,77.99
2022-12-09T14:57:52.249Z,78.12
2022-12-09T15:01:53.475Z,78.12
2022-12-09T15:05:54.244Z,78.21
2022-12-09T15:09:57.581Z,78.13
2022-12-09T15:14:18.314Z,78.09
2022-12-09T15:18:24.773Z,78.10
2022-12-09T15:22:26.452Z,78.00
2022-12-09T15:26:32.896Z,77.97
2022-12-09T15:30:33.868Z,77.87
2022-12-09T15:34:33.546Z,77.75
2022-12-09T15:38:40.525Z,77.69
2022-12-09T15:42:42.136Z,77.74
2022-12-09T15:46:42.926Z,77.75
2022-12-09T15:50:49.583Z,77.70
2022-12-09T15:54:49.592Z,77.70
2022-12-09T15:58:51.812Z,77.65
2022-12-09T16:02:51.451Z,77.65
2022-12-09T16:06:51.391Z,77.65
2022-12-09T16:10:51.871Z,77.63
2022-12-09T16:14:51.406Z,77.69
2022-12-09T16:18:51.255Z,77.69
2022-12-09T16:22:51.044Z,77.73
2022-12-09T16:26:51.471Z,77.74
2022-12-09T16:30:53.087Z,77.78
2022-12-09T16:34:53.586Z,77.82
2022-12-09T16:39:14.055Z,77.86
2022-12-09T16:43:16.206Z,77.87
2022-12-09T16:47:17.246Z,77.84
2022-12-09T16:51:20.208Z,77.85
2022-12-09T16:55:24.051Z,77.87
2022-12-09T16:59:23.847Z,77.90
2022-12-09T17:03:29.951Z,77.89
2022-12-09T17:07:30.144Z,77.93
2022-12-09T17:11:29.354Z,77.92
2022-12-09T17:15:29.791Z,77.90
2022-12-09T17:19:29.630Z,77.91
2022-12-09T17:23:30.676Z,77.90
2022-12-09T17:27:32.033Z,77.93
2022-12-09T17:31:51.945Z,77.91
2022-12-09T17:35:12.509Z,77.86
2022-12-09T17:39:15.371Z,77.81
2022-12-09T17:43:28.442Z,77.76
2022-12-09T17:47:28.760Z,77.76
2022-12-09T17:51:41.624Z,77.69
2022-12-09T17:55:41.384Z,77.61
2022-12-09T17:59:41.065Z,77.58
2022-12-09T18:03:55.501Z,77.55
2022-12-09T18:07:55.560Z,77.53
2022-12-09T18:11:55.500Z,77.53
2022-12-09T18:15:55.133Z,77.50
2022-12-09T18:19:54.698Z,77.42
2022-12-09T18:23:54.865Z,77.28
2022-12-09T18:27:54.224Z,77.22
2022-12-09T18:31:57.423Z,77.22
2022-12-09T18:35:57.041Z,77.21
2022-12-09T18:39:56.804Z,77.20
2022-12-09T18:43:57.642Z,77.12
2022-12-09T18:47:57.516Z,77.08
2022-12-09T18:51:57.892Z,77.04
2022-12-09T18:55:57.751Z,77.01
2022-12-09T18:59:57.165Z,76.93
2022-12-09T19:03:58.807Z,76.75
2022-12-09T19:08:12.194Z,76.68
2022-12-09T19:12:45.371Z,76.66
2022-12-09T19:16:31.764Z,76.74
2022-12-09T19:20:31.244Z,76.75
2022-12-09T19:24:32.804Z,76.68
2022-12-09T19:28:32.122Z,76.53
2022-12-09T19:32:52.559Z,76.50
2022-12-09T19:36:52.084Z,76.52
2022-12-09T19:40:51.395Z,76.52
2022-12-09T19:45:14.206Z,76.49
2022-12-09T19:48:28.187Z,76.40
2022-12-09T19:52:42.531Z,76.32
2022-12-09T19:56:42.699Z,76.32
2022-12-09T20:00:42.138Z,76.24
2022-12-09T20:04:56.064Z,76.10
2022-12-09T20:08:55.916Z,75.99
2022-12-09T20:12:55.371Z,75.83
2022-12-09T20:16:54.764Z,75.96
2022-12-09T20:20:53.783Z,76.04
2022-12-09T20:24:53.413Z,75.74
2022-12-09T20:28:55.123Z,75.52
2022-12-09T20:32:55.069Z,75.45
2022-12-09T20:36:54.231Z,75.60
2022-12-09T20:40:53.531Z,75.65
2022-12-09T20:44:52.664Z,75.58
2022-12-09T20:48:52.851Z,75.54
2022-12-09T20:52:52.545Z,75.51
2022-12-09T20:56:53.503Z,75.26
2022-12-09T21:00:53.202Z,75.16
2022-12-09T21:04:52.610Z,74.95
2022-12-09T21:08:53.943Z,74.99
2022-12-09T21:12:53.268Z,74.83
2022-12-09T21:16:52.622Z,74.78
2022-12-09T21:20:52.154Z,75.04
2022-12-09T21:24:51.784Z,75.15
2022-12-09T21:28:51.583Z,75.14
2022-12-09T21:32:51.135Z,75.05
2022-12-09T21:36:51.651Z,74.99
2022-12-09T21:40:50.912Z,74.98
2022-12-09T21:44:50.669Z,75.06
2022-12-09T21:48:52.358Z,75.19
2022-12-09T21:52:52.906Z,75.35
2022-12-09T21:56:52.702Z,75.50
2022-12-09T22:00:53.410Z,75.63
2022-12-09T22:04:29.915Z,75.70
2022-12-09T22:08:30.973Z,75.76
2022-12-09T22:12:30.545Z,75.89
2022-12-09T22:16:37.492Z,76.01
2022-12-09T22:24:55.763Z,75.99
2022-12-09T22:28:55.689Z,76.05
2022-12-09T22:32:55.288Z,76.16
2022-12-09T22:36:55.251Z,76.23
2022-12-09T22:40:54.435Z,76.31
2022-12-09T22:44:54.327Z,76.36
2022-12-09T22:48:54.450Z,76.36
2022-12-09T22:52:53.924Z,76.38
2022-12-09T22:56:53.554Z,76.43
2022-12-09T23:00:53.244Z,76.44
2022-12-09T23:04:52.864Z,76.43
2022-12-09T23:08:52.865Z,76.42
2022-12-09T23:12:52.725Z,76.43
2022-12-09T23:16:52.029Z,76.35
2022-12-09T23:20:50.869Z,76.43
2022-12-09T23:24:50.048Z,76.22
2022-12-09T23:29:04.369Z,76.10
2022-12-09T23:33:17.107Z,75.87
2022-12-09T23:37:18.053Z,75.85
2022-12-09T23:41:18.534Z,75.70
2022-12-09T23:45:17.970Z,75.59
2022-12-09T23:49:30.689Z,75.56
2022-12-09T23:53:29.646Z,75.49
2022-12-09T23:57:29.448Z,75.40
